sensor_id;sensor_type;location;lat;lon;timestamp;P1;durP1;ratioP1;P2;durP2;ratioP2
15402;SDS011;7799;53.478;10.170;2023-05-07T00:01:33;7.77;;;7.00;;
15402;SDS011;7799;53.478;10.170;2023-05-07T00:04:00;8.87;;;7.57;;
15402;SDS011;7799;53.478;10.170;2023-05-07T00:06:28;9.67;;;8.70;;
15402;SDS011;7799;53.478;10.170;2023-05-07T00:08:56;9.07;;;8.17;;
15402;SDS011;7799;53.478;10.170;2023-05-07T00:11:22;8.67;;;7.87;;
15402;SDS011;7799;53.478;10.170;2023-05-07T00:13:49;9.17;;;8.27;;
15402;SDS011;7799;53.478;10.170;2023-05-07T00:16:16;8.93;;;8.07;;
15402;SDS011;7799;53.478;10.170;2023-05-07T00:18:43;9.03;;;8.13;;
15402;SDS011;7799;53.478;10.170;2023-05-07T00:21:10;8.50;;;7.70;;
15402;SDS011;7799;53.478;10.170;2023-05-07T00:23:38;8.47;;;7.67;;
15402;SDS011;7799;53.478;10.170;2023-05-07T00:26:04;8.73;;;7.93;;
15402;SDS011;7799;53.478;10.170;2023-05-07T00:28:31;7.90;;;7.10;;
15402;SDS011;7799;53.478;10.170;2023-05-07T00:30:58;8.67;;;7.77;;
15402;SDS011;7799;53.478;10.170;2023-05-07T00:33:24;9.47;;;8.57;;
15402;SDS011;7799;53.478;10.170;2023-05-07T00:35:52;7.90;;;6.73;;
15402;SDS011;7799;53.478;10.170;2023-05-07T00:38:19;8.27;;;7.47;;
15402;SDS011;7799;53.478;10.170;2023-05-07T00:40:47;7.43;;;6.73;;
15402;SDS011;7799;53.478;10.170;2023-05-07T00:43:14;7.80;;;7.00;;
15402;SDS011;7799;53.478;10.170;2023-05-07T00:45:41;8.10;;;7.40;;
15402;SDS011;7799;53.478;10.170;2023-05-07T00:48:07;7.80;;;7.00;;
15402;SDS011;7799;53.478;10.170;2023-05-07T00:50:34;8.60;;;7.53;;
15402;SDS011;7799;53.478;10.170;2023-05-07T00:53:01;7.60;;;6.90;;
15402;SDS011;7799;53.478;10.170;2023-05-07T00:55:28;7.63;;;6.93;;
15402;SDS011;7799;53.478;10.170;2023-05-07T00:57:57;8.17;;;7.23;;
15402;SDS011;7799;53.478;10.170;2023-05-07T01:00:23;8.50;;;7.70;;
15402;SDS011;7799;53.478;10.170;2023-05-07T01:02:50;8.23;;;7.43;;
15402;SDS011;7799;53.478;10.170;2023-05-07T01:05:17;8.23;;;7.50;;
15402;SDS011;7799;53.478;10.170;2023-05-07T01:07:45;8.40;;;7.70;;
15402;SDS011;7799;53.478;10.170;2023-05-07T01:10:12;7.50;;;6.80;;
15402;SDS011;7799;53.478;10.170;2023-05-07T01:12:39;7.33;;;6.70;;
15402;SDS011;7799;53.478;10.170;2023-05-07T01:15:08;7.20;;;6.60;;
15402;SDS011;7799;53.478;10.170;2023-05-07T01:17:36;6.53;;;6.03;;
15402;SDS011;7799;53.478;10.170;2023-05-07T01:20:04;7.57;;;6.87;;
15402;SDS011;7799;53.478;10.170;2023-05-07T01:22:34;7.20;;;6.50;;
15402;SDS011;7799;53.478;10.170;2023-05-07T01:25:02;7.00;;;6.40;;
15402;SDS011;7799;53.478;10.170;2023-05-07T01:27:30;6.40;;;5.80;;
15402;SDS011;7799;53.478;10.170;2023-05-07T01:29:58;6.40;;;5.90;;
15402;SDS011;7799;53.478;10.170;2023-05-07T01:32:27;6.50;;;5.93;;
15402;SDS011;7799;53.478;10.170;2023-05-07T01:34:55;7.23;;;6.63;;
15402;SDS011;7799;53.478;10.170;2023-05-07T01:37:23;6.93;;;6.33;;
15402;SDS011;7799;53.478;10.170;2023-05-07T01:39:52;6.50;;;5.90;;
15402;SDS011;7799;53.478;10.170;2023-05-07T01:42:19;6.40;;;5.83;;
15402;SDS011;7799;53.478;10.170;2023-05-07T01:44:46;7.10;;;6.50;;
15402;SDS011;7799;53.478;10.170;2023-05-07T01:47:12;7.70;;;7.00;;
15402;SDS011;7799;53.478;10.170;2023-05-07T01:49:40;7.07;;;6.37;;
15402;SDS011;7799;53.478;10.170;2023-05-07T01:52:07;7.27;;;6.57;;
15402;SDS011;7799;53.478;10.170;2023-05-07T01:54:34;6.20;;;5.60;;
15402;SDS011;7799;53.478;10.170;2023-05-07T01:57:03;6.60;;;6.00;;
15402;SDS011;7799;53.478;10.170;2023-05-07T01:59:29;6.00;;;5.43;;
15402;SDS011;7799;53.478;10.170;2023-05-07T02:01:56;6.43;;;5.77;;
15402;SDS011;7799;53.478;10.170;2023-05-07T02:04:23;6.00;;;5.50;;
15402;SDS011;7799;53.478;10.170;2023-05-07T02:06:51;6.23;;;5.70;;
15402;SDS011;7799;53.478;10.170;2023-05-07T02:09:18;6.90;;;6.20;;
15402;SDS011;7799;53.478;10.170;2023-05-07T02:11:47;7.10;;;6.30;;
15402;SDS011;7799;53.478;10.170;2023-05-07T02:14:15;7.73;;;6.90;;
15402;SDS011;7799;53.478;10.170;2023-05-07T02:16:42;6.50;;;5.87;;
15402;SDS011;7799;53.478;10.170;2023-05-07T02:19:11;7.43;;;6.73;;
15402;SDS011;7799;53.478;10.170;2023-05-07T02:21:38;9.10;;;7.93;;
15402;SDS011;7799;53.478;10.170;2023-05-07T02:24:05;8.17;;;7.37;;
15402;SDS011;7799;53.478;10.170;2023-05-07T02:26:34;8.33;;;7.60;;
15402;SDS011;7799;53.478;10.170;2023-05-07T02:29:01;7.70;;;6.47;;
15402;SDS011;7799;53.478;10.170;2023-05-07T02:31:30;7.00;;;6.33;;
15402;SDS011;7799;53.478;10.170;2023-05-07T02:33:56;9.07;;;8.03;;
15402;SDS011;7799;53.478;10.170;2023-05-07T02:36:23;6.20;;;5.60;;
15402;SDS011;7799;53.478;10.170;2023-05-07T02:38:55;7.80;;;7.00;;
15402;SDS011;7799;53.478;10.170;2023-05-07T02:41:22;6.40;;;5.73;;
15402;SDS011;7799;53.478;10.170;2023-05-07T02:43:49;7.23;;;6.40;;
15402;SDS011;7799;53.478;10.170;2023-05-07T02:46:16;7.70;;;6.90;;
15402;SDS011;7799;53.478;10.170;2023-05-07T02:48:48;7.63;;;6.90;;
15402;SDS011;7799;53.478;10.170;2023-05-07T02:51:17;8.20;;;6.90;;
15402;SDS011;7799;53.478;10.170;2023-05-07T02:53:46;8.40;;;7.47;;
15402;SDS011;7799;53.478;10.170;2023-05-07T02:56:13;7.83;;;7.03;;
15402;SDS011;7799;53.478;10.170;2023-05-07T02:58:39;7.67;;;6.97;;
15402;SDS011;7799;53.478;10.170;2023-05-07T03:01:08;7.47;;;6.77;;
15402;SDS011;7799;53.478;10.170;2023-05-07T03:03:59;9.30;;;8.33;;
15402;SDS011;7799;53.478;10.170;2023-05-07T03:06:26;9.23;;;7.40;;
15402;SDS011;7799;53.478;10.170;2023-05-07T03:08:52;10.17;;;8.00;;
15402;SDS011;7799;53.478;10.170;2023-05-07T03:11:19;7.53;;;6.83;;
15402;SDS011;7799;53.478;10.170;2023-05-07T03:13:46;8.03;;;7.23;;
15402;SDS011;7799;53.478;10.170;2023-05-07T03:16:14;7.97;;;7.20;;
15402;SDS011;7799;53.478;10.170;2023-05-07T03:18:42;7.73;;;7.03;;
15402;SDS011;7799;53.478;10.170;2023-05-07T03:21:11;8.80;;;7.90;;
15402;SDS011;7799;53.478;10.170;2023-05-07T03:23:38;7.90;;;7.20;;
15402;SDS011;7799;53.478;10.170;2023-05-07T03:26:05;7.40;;;6.60;;
15402;SDS011;7799;53.478;10.170;2023-05-07T03:28:38;8.27;;;7.47;;
15402;SDS011;7799;53.478;10.170;2023-05-07T03:31:08;8.97;;;7.83;;
15402;SDS011;7799;53.478;10.170;2023-05-07T03:33:38;8.00;;;7.20;;
15402;SDS011;7799;53.478;10.170;2023-05-07T03:36:09;7.43;;;6.77;;
15402;SDS011;7799;53.478;10.170;2023-05-07T03:38:37;7.90;;;7.20;;
15402;SDS011;7799;53.478;10.170;2023-05-07T03:41:04;7.90;;;7.20;;
15402;SDS011;7799;53.478;10.170;2023-05-07T03:43:31;7.77;;;7.07;;
15402;SDS011;7799;53.478;10.170;2023-05-07T03:46:04;8.83;;;8.03;;
15402;SDS011;7799;53.478;10.170;2023-05-07T03:48:30;8.83;;;8.03;;
15402;SDS011;7799;53.478;10.170;2023-05-07T03:50:58;8.70;;;7.90;;
15402;SDS011;7799;53.478;10.170;2023-05-07T03:53:29;8.50;;;7.70;;
15402;SDS011;7799;53.478;10.170;2023-05-07T03:55:57;8.47;;;7.63;;
15402;SDS011;7799;53.478;10.170;2023-05-07T03:58:24;7.77;;;7.00;;
15402;SDS011;7799;53.478;10.170;2023-05-07T04:00:53;8.40;;;7.53;;
15402;SDS011;7799;53.478;10.170;2023-05-07T04:03:26;8.40;;;7.30;;
15402;SDS011;7799;53.478;10.170;2023-05-07T04:05:56;8.37;;;7.57;;
15402;SDS011;7799;53.478;10.170;2023-05-07T04:08:22;8.17;;;7.37;;
15402;SDS011;7799;53.478;10.170;2023-05-07T04:10:54;8.27;;;7.47;;
15402;SDS011;7799;53.478;10.170;2023-05-07T04:13:23;9.43;;;8.47;;
15402;SDS011;7799;53.478;10.170;2023-05-07T04:15:50;8.93;;;7.87;;
15402;SDS011;7799;53.478;10.170;2023-05-07T04:18:18;8.37;;;7.47;;
15402;SDS011;7799;53.478;10.170;2023-05-07T04:20:46;7.50;;;6.80;;
15402;SDS011;7799;53.478;10.170;2023-05-07T04:23:14;7.93;;;7.20;;
15402;SDS011;7799;53.478;10.170;2023-05-07T04:25:41;8.03;;;7.33;;
15402;SDS011;7799;53.478;10.170;2023-05-07T04:28:31;7.60;;;6.90;;
15402;SDS011;7799;53.478;10.170;2023-05-07T04:30:58;7.40;;;6.70;;
15402;SDS011;7799;53.478;10.170;2023-05-07T04:33:25;8.73;;;7.93;;
15402;SDS011;7799;53.478;10.170;2023-05-07T04:35:52;7.80;;;7.10;;
15402;SDS011;7799;53.478;10.170;2023-05-07T04:38:19;7.47;;;6.77;;
15402;SDS011;7799;53.478;10.170;2023-05-07T04:40:48;7.63;;;6.93;;
15402;SDS011;7799;53.478;10.170;2023-05-07T04:43:19;7.47;;;6.77;;
15402;SDS011;7799;53.478;10.170;2023-05-07T04:45:51;8.20;;;7.43;;
15402;SDS011;7799;53.478;10.170;2023-05-07T04:48:19;7.23;;;6.63;;
15402;SDS011;7799;53.478;10.170;2023-05-07T04:50:47;8.53;;;7.73;;
15402;SDS011;7799;53.478;10.170;2023-05-07T04:53:14;7.73;;;7.03;;
15402;SDS011;7799;53.478;10.170;2023-05-07T04:55:41;7.77;;;7.17;;
15402;SDS011;7799;53.478;10.170;2023-05-07T04:58:08;7.30;;;6.70;;
15402;SDS011;7799;53.478;10.170;2023-05-07T05:00:36;8.57;;;7.63;;
15402;SDS011;7799;53.478;10.170;2023-05-07T05:03:07;7.23;;;6.63;;
15402;SDS011;7799;53.478;10.170;2023-05-07T05:05:36;7.00;;;6.40;;
15402;SDS011;7799;53.478;10.170;2023-05-07T05:08:03;7.60;;;6.90;;
15402;SDS011;7799;53.478;10.170;2023-05-07T05:10:30;7.37;;;6.67;;
15402;SDS011;7799;53.478;10.170;2023-05-07T05:12:57;7.57;;;6.87;;
15402;SDS011;7799;53.478;10.170;2023-05-07T05:15:24;7.63;;;6.93;;
15402;SDS011;7799;53.478;10.170;2023-05-07T05:17:51;8.23;;;7.43;;
15402;SDS011;7799;53.478;10.170;2023-05-07T05:20:19;8.20;;;7.40;;
15402;SDS011;7799;53.478;10.170;2023-05-07T05:22:47;8.10;;;7.07;;
15402;SDS011;7799;53.478;10.170;2023-05-07T05:25:14;7.30;;;6.60;;
15402;SDS011;7799;53.478;10.170;2023-05-07T05:27:41;8.43;;;7.63;;
15402;SDS011;7799;53.478;10.170;2023-05-07T05:30:08;7.57;;;6.87;;
15402;SDS011;7799;53.478;10.170;2023-05-07T05:32:36;8.47;;;7.50;;
15402;SDS011;7799;53.478;10.170;2023-05-07T05:35:04;7.00;;;6.37;;
15402;SDS011;7799;53.478;10.170;2023-05-07T05:37:32;7.63;;;6.93;;
15402;SDS011;7799;53.478;10.170;2023-05-07T05:40:01;7.90;;;6.83;;
15402;SDS011;7799;53.478;10.170;2023-05-07T05:42:29;7.20;;;6.50;;
15402;SDS011;7799;53.478;10.170;2023-05-07T05:44:56;8.03;;;7.23;;
15402;SDS011;7799;53.478;10.170;2023-05-07T05:47:23;7.70;;;7.00;;
15402;SDS011;7799;53.478;10.170;2023-05-07T05:49:53;7.10;;;6.40;;
15402;SDS011;7799;53.478;10.170;2023-05-07T05:52:20;7.30;;;6.60;;
15402;SDS011;7799;53.478;10.170;2023-05-07T05:54:50;8.07;;;7.27;;
15402;SDS011;7799;53.478;10.170;2023-05-07T05:57:18;7.73;;;7.00;;
15402;SDS011;7799;53.478;10.170;2023-05-07T05:59:45;7.63;;;6.90;;
15402;SDS011;7799;53.478;10.170;2023-05-07T06:02:13;7.50;;;6.80;;
15402;SDS011;7799;53.478;10.170;2023-05-07T06:04:40;7.97;;;7.27;;
15402;SDS011;7799;53.478;10.170;2023-05-07T06:07:08;8.20;;;7.40;;
15402;SDS011;7799;53.478;10.170;2023-05-07T06:09:35;7.33;;;6.63;;
15402;SDS011;7799;53.478;10.170;2023-05-07T06:12:03;6.77;;;6.17;;
15402;SDS011;7799;53.478;10.170;2023-05-07T06:14:34;6.70;;;6.00;;
15402;SDS011;7799;53.478;10.170;2023-05-07T06:17:00;8.23;;;7.43;;
15402;SDS011;7799;53.478;10.170;2023-05-07T06:19:27;7.43;;;6.73;;
15402;SDS011;7799;53.478;10.170;2023-05-07T06:21:56;7.27;;;6.57;;
15402;SDS011;7799;53.478;10.170;2023-05-07T06:24:27;7.53;;;6.80;;
15402;SDS011;7799;53.478;10.170;2023-05-07T06:26:53;7.70;;;7.00;;
15402;SDS011;7799;53.478;10.170;2023-05-07T06:29:22;7.37;;;6.40;;
15402;SDS011;7799;53.478;10.170;2023-05-07T06:31:51;6.60;;;6.00;;
15402;SDS011;7799;53.478;10.170;2023-05-07T06:34:18;6.63;;;6.07;;
15402;SDS011;7799;53.478;10.170;2023-05-07T06:36:44;7.07;;;6.37;;
15402;SDS011;7799;53.478;10.170;2023-05-07T06:39:24;8.23;;;7.23;;
15402;SDS011;7799;53.478;10.170;2023-05-07T06:41:51;7.20;;;6.50;;
15402;SDS011;7799;53.478;10.170;2023-05-07T06:44:26;7.47;;;6.60;;
15402;SDS011;7799;53.478;10.170;2023-05-07T06:47:09;7.67;;;6.30;;
15402;SDS011;7799;53.478;10.170;2023-05-07T06:49:38;7.23;;;6.60;;
15402;SDS011;7799;53.478;10.170;2023-05-07T06:52:04;6.50;;;5.90;;
15402;SDS011;7799;53.478;10.170;2023-05-07T06:54:31;6.73;;;6.03;;
15402;SDS011;7799;53.478;10.170;2023-05-07T06:56:58;7.07;;;6.37;;
15402;SDS011;7799;53.478;10.170;2023-05-07T06:59:27;6.40;;;5.80;;
15402;SDS011;7799;53.478;10.170;2023-05-07T07:01:54;5.77;;;5.27;;
15402;SDS011;7799;53.478;10.170;2023-05-07T07:04:21;6.10;;;5.50;;
15402;SDS011;7799;53.478;10.170;2023-05-07T07:06:57;6.10;;;5.60;;
15402;SDS011;7799;53.478;10.170;2023-05-07T07:09:23;6.90;;;6.30;;
15402;SDS011;7799;53.478;10.170;2023-05-07T07:11:51;6.50;;;5.90;;
15402;SDS011;7799;53.478;10.170;2023-05-07T07:14:18;6.17;;;5.57;;
15402;SDS011;7799;53.478;10.170;2023-05-07T07:16:50;6.27;;;5.67;;
15402;SDS011;7799;53.478;10.170;2023-05-07T07:19:18;6.33;;;5.80;;
15402;SDS011;7799;53.478;10.170;2023-05-07T07:21:48;6.23;;;5.63;;
15402;SDS011;7799;53.478;10.170;2023-05-07T07:24:15;6.63;;;6.00;;
15402;SDS011;7799;53.478;10.170;2023-05-07T07:26:47;5.50;;;5.00;;
15402;SDS011;7799;53.478;10.170;2023-05-07T07:29:14;5.60;;;5.10;;
15402;SDS011;7799;53.478;10.170;2023-05-07T07:31:42;5.30;;;4.90;;
15402;SDS011;7799;53.478;10.170;2023-05-07T07:34:10;6.43;;;5.93;;
15402;SDS011;7799;53.478;10.170;2023-05-07T07:36:37;5.87;;;5.30;;
15402;SDS011;7799;53.478;10.170;2023-05-07T07:39:05;6.03;;;5.50;;
15402;SDS011;7799;53.478;10.170;2023-05-07T07:41:32;5.63;;;5.13;;
15402;SDS011;7799;53.478;10.170;2023-05-07T07:43:59;6.20;;;5.70;;
15402;SDS011;7799;53.478;10.170;2023-05-07T07:46:26;6.37;;;5.73;;
15402;SDS011;7799;53.478;10.170;2023-05-07T07:48:53;6.10;;;5.60;;
15402;SDS011;7799;53.478;10.170;2023-05-07T07:51:21;5.97;;;5.40;;
15402;SDS011;7799;53.478;10.170;2023-05-07T07:53:48;6.10;;;5.50;;
15402;SDS011;7799;53.478;10.170;2023-05-07T07:56:17;5.77;;;5.27;;
15402;SDS011;7799;53.478;10.170;2023-05-07T07:58:43;6.63;;;5.83;;
15402;SDS011;7799;53.478;10.170;2023-05-07T08:01:11;5.47;;;4.97;;
15402;SDS011;7799;53.478;10.170;2023-05-07T08:03:39;5.77;;;5.27;;
15402;SDS011;7799;53.478;10.170;2023-05-07T08:06:08;6.20;;;5.70;;
15402;SDS011;7799;53.478;10.170;2023-05-07T08:08:36;6.00;;;5.40;;
15402;SDS011;7799;53.478;10.170;2023-05-07T08:11:03;5.30;;;4.83;;
15402;SDS011;7799;53.478;10.170;2023-05-07T08:13:32;4.97;;;4.57;;
15402;SDS011;7799;53.478;10.170;2023-05-07T08:15:59;5.40;;;4.90;;
15402;SDS011;7799;53.478;10.170;2023-05-07T08:18:26;6.00;;;5.43;;
15402;SDS011;7799;53.478;10.170;2023-05-07T08:20:55;5.17;;;4.67;;
15402;SDS011;7799;53.478;10.170;2023-05-07T08:23:25;5.47;;;5.07;;
15402;SDS011;7799;53.478;10.170;2023-05-07T08:25:53;5.67;;;5.17;;
15402;SDS011;7799;53.478;10.170;2023-05-07T08:28:21;5.77;;;5.27;;
15402;SDS011;7799;53.478;10.170;2023-05-07T08:30:50;6.00;;;5.50;;
15402;SDS011;7799;53.478;10.170;2023-05-07T08:33:17;6.60;;;6.00;;
15402;SDS011;7799;53.478;10.170;2023-05-07T08:35:43;6.40;;;5.73;;
15402;SDS011;7799;53.478;10.170;2023-05-07T08:38:12;6.70;;;6.10;;
15402;SDS011;7799;53.478;10.170;2023-05-07T08:40:39;6.00;;;5.47;;
15402;SDS011;7799;53.478;10.170;2023-05-07T08:43:13;7.17;;;5.70;;
15402;SDS011;7799;53.478;10.170;2023-05-07T08:45:41;6.70;;;6.10;;
15402;SDS011;7799;53.478;10.170;2023-05-07T08:48:14;5.97;;;5.40;;
15402;SDS011;7799;53.478;10.170;2023-05-07T08:50:44;6.03;;;5.43;;
15402;SDS011;7799;53.478;10.170;2023-05-07T08:53:11;6.07;;;5.57;;
15402;SDS011;7799;53.478;10.170;2023-05-07T08:55:39;6.20;;;5.70;;
15402;SDS011;7799;53.478;10.170;2023-05-07T08:58:06;5.47;;;4.97;;
15402;SDS011;7799;53.478;10.170;2023-05-07T09:00:37;5.53;;;5.03;;
15402;SDS011;7799;53.478;10.170;2023-05-07T09:03:05;5.13;;;4.70;;
15402;SDS011;7799;53.478;10.170;2023-05-07T09:05:33;5.13;;;4.63;;
15402;SDS011;7799;53.478;10.170;2023-05-07T09:08:02;5.73;;;5.33;;
15402;SDS011;7799;53.478;10.170;2023-05-07T09:10:29;5.50;;;5.00;;
15402;SDS011;7799;53.478;10.170;2023-05-07T09:13:00;5.23;;;4.73;;
15402;SDS011;7799;53.478;10.170;2023-05-07T09:15:28;5.00;;;4.57;;
15402;SDS011;7799;53.478;10.170;2023-05-07T09:18:00;5.50;;;5.00;;
15402;SDS011;7799;53.478;10.170;2023-05-07T09:20:29;4.60;;;4.20;;
15402;SDS011;7799;53.478;10.170;2023-05-07T09:22:57;4.90;;;4.50;;
15402;SDS011;7799;53.478;10.170;2023-05-07T09:25:28;4.43;;;4.13;;
15402;SDS011;7799;53.478;10.170;2023-05-07T09:27:56;5.37;;;4.87;;
15402;SDS011;7799;53.478;10.170;2023-05-07T09:30:22;5.00;;;4.50;;
15402;SDS011;7799;53.478;10.170;2023-05-07T09:32:49;5.30;;;4.70;;
15402;SDS011;7799;53.478;10.170;2023-05-07T09:35:22;4.97;;;4.57;;
15402;SDS011;7799;53.478;10.170;2023-05-07T09:37:56;5.03;;;4.57;;
15402;SDS011;7799;53.478;10.170;2023-05-07T09:40:25;5.77;;;5.27;;
15402;SDS011;7799;53.478;10.170;2023-05-07T09:42:53;5.27;;;4.87;;
15402;SDS011;7799;53.478;10.170;2023-05-07T09:45:21;5.17;;;4.77;;
15402;SDS011;7799;53.478;10.170;2023-05-07T09:47:49;5.43;;;4.93;;
15402;SDS011;7799;53.478;10.170;2023-05-07T09:50:23;5.27;;;4.77;;
15402;SDS011;7799;53.478;10.170;2023-05-07T09:52:53;5.80;;;5.30;;
15402;SDS011;7799;53.478;10.170;2023-05-07T09:55:22;6.30;;;5.70;;
15402;SDS011;7799;53.478;10.170;2023-05-07T09:57:50;6.37;;;5.47;;
15402;SDS011;7799;53.478;10.170;2023-05-07T10:00:17;4.83;;;4.43;;
15402;SDS011;7799;53.478;10.170;2023-05-07T10:02:48;5.60;;;5.07;;
15402;SDS011;7799;53.478;10.170;2023-05-07T10:05:22;5.93;;;5.40;;
15402;SDS011;7799;53.478;10.170;2023-05-07T10:07:53;5.10;;;4.70;;
15402;SDS011;7799;53.478;10.170;2023-05-07T10:10:21;5.20;;;4.80;;
15402;SDS011;7799;53.478;10.170;2023-05-07T10:12:48;5.07;;;4.67;;
15402;SDS011;7799;53.478;10.170;2023-05-07T10:15:23;4.90;;;4.50;;
15402;SDS011;7799;53.478;10.170;2023-05-07T10:17:53;4.87;;;4.47;;
15402;SDS011;7799;53.478;10.170;2023-05-07T10:20:22;5.57;;;4.87;;
15402;SDS011;7799;53.478;10.170;2023-05-07T10:22:49;5.27;;;4.73;;
15402;SDS011;7799;53.478;10.170;2023-05-07T10:25:23;5.17;;;4.77;;
15402;SDS011;7799;53.478;10.170;2023-05-07T10:27:57;4.93;;;4.53;;
15402;SDS011;7799;53.478;10.170;2023-05-07T10:30:29;4.80;;;4.40;;
15402;SDS011;7799;53.478;10.170;2023-05-07T10:33:01;4.40;;;4.10;;
15402;SDS011;7799;53.478;10.170;2023-05-07T10:35:37;4.70;;;4.00;;
15402;SDS011;7799;53.478;10.170;2023-05-07T10:38:06;3.93;;;3.63;;
15402;SDS011;7799;53.478;10.170;2023-05-07T10:40:35;4.30;;;4.00;;
15402;SDS011;7799;53.478;10.170;2023-05-07T10:43:03;4.07;;;3.70;;
15402;SDS011;7799;53.478;10.170;2023-05-07T10:45:37;4.00;;;3.70;;
15402;SDS011;7799;53.478;10.170;2023-05-07T10:48:08;4.20;;;3.90;;
15402;SDS011;7799;53.478;10.170;2023-05-07T10:50:38;3.80;;;3.50;;
15402;SDS011;7799;53.478;10.170;2023-05-07T10:53:20;4.40;;;4.10;;
15402;SDS011;7799;53.478;10.170;2023-05-07T10:59:31;4.70;;;4.30;;
15402;SDS011;7799;53.478;10.170;2023-05-07T11:02:07;4.00;;;3.70;;
15402;SDS011;7799;53.478;10.170;2023-05-07T11:04:42;4.50;;;4.10;;
15402;SDS011;7799;53.478;10.170;2023-05-07T11:07:26;4.77;;;4.37;;
15402;SDS011;7799;53.478;10.170;2023-05-07T11:10:20;4.77;;;4.37;;
15402;SDS011;7799;53.478;10.170;2023-05-07T11:12:55;4.70;;;4.30;;
15402;SDS011;7799;53.478;10.170;2023-05-07T11:15:41;4.47;;;4.07;;
15402;SDS011;7799;53.478;10.170;2023-05-07T11:18:20;4.70;;;4.30;;
15402;SDS011;7799;53.478;10.170;2023-05-07T11:20:53;4.93;;;4.53;;
15402;SDS011;7799;53.478;10.170;2023-05-07T11:27:03;4.53;;;4.13;;
15402;SDS011;7799;53.478;10.170;2023-05-07T11:29:31;4.17;;;3.77;;
15402;SDS011;7799;53.478;10.170;2023-05-07T11:32:04;4.53;;;4.13;;
15402;SDS011;7799;53.478;10.170;2023-05-07T11:34:37;4.10;;;3.80;;
15402;SDS011;7799;53.478;10.170;2023-05-07T11:37:04;3.57;;;3.33;;
15402;SDS011;7799;53.478;10.170;2023-05-07T11:39:50;3.90;;;3.60;;
15402;SDS011;7799;53.478;10.170;2023-05-07T11:42:27;4.00;;;3.70;;
15402;SDS011;7799;53.478;10.170;2023-05-07T11:44:54;4.17;;;3.77;;
15402;SDS011;7799;53.478;10.170;2023-05-07T11:47:21;3.73;;;3.43;;
15402;SDS011;7799;53.478;10.170;2023-05-07T11:49:47;3.60;;;3.40;;
15402;SDS011;7799;53.478;10.170;2023-05-07T11:52:14;3.07;;;2.87;;
15402;SDS011;7799;53.478;10.170;2023-05-07T11:54:44;3.40;;;3.20;;
15402;SDS011;7799;53.478;10.170;2023-05-07T11:57:15;3.40;;;3.20;;
15402;SDS011;7799;53.478;10.170;2023-05-07T11:59:43;3.10;;;2.80;;
15402;SDS011;7799;53.478;10.170;2023-05-07T12:02:10;3.10;;;2.90;;
15402;SDS011;7799;53.478;10.170;2023-05-07T12:04:37;3.33;;;3.13;;
15402;SDS011;7799;53.478;10.170;2023-05-07T12:07:04;3.57;;;3.27;;
15402;SDS011;7799;53.478;10.170;2023-05-07T12:09:32;2.77;;;2.57;;
15402;SDS011;7799;53.478;10.170;2023-05-07T12:12:02;3.00;;;2.70;;
15402;SDS011;7799;53.478;10.170;2023-05-07T12:14:29;3.30;;;3.00;;
15402;SDS011;7799;53.478;10.170;2023-05-07T12:16:59;3.10;;;2.90;;
15402;SDS011;7799;53.478;10.170;2023-05-07T12:19:28;3.23;;;3.00;;
15402;SDS011;7799;53.478;10.170;2023-05-07T12:21:54;3.67;;;2.77;;
15402;SDS011;7799;53.478;10.170;2023-05-07T12:24:21;2.80;;;2.60;;
15402;SDS011;7799;53.478;10.170;2023-05-07T12:26:48;3.23;;;2.60;;
15402;SDS011;7799;53.478;10.170;2023-05-07T12:29:15;2.87;;;2.60;;
15402;SDS011;7799;53.478;10.170;2023-05-07T12:31:41;2.80;;;2.60;;
15402;SDS011;7799;53.478;10.170;2023-05-07T12:34:11;2.63;;;2.43;;
15402;SDS011;7799;53.478;10.170;2023-05-07T12:36:38;2.90;;;2.60;;
15402;SDS011;7799;53.478;10.170;2023-05-07T12:39:05;2.20;;;2.10;;
15402;SDS011;7799;53.478;10.170;2023-05-07T12:41:35;2.70;;;2.50;;
15402;SDS011;7799;53.478;10.170;2023-05-07T12:44:03;2.30;;;2.10;;
15402;SDS011;7799;53.478;10.170;2023-05-07T12:46:30;2.43;;;2.23;;
15402;SDS011;7799;53.478;10.170;2023-05-07T12:48:57;2.47;;;2.30;;
15402;SDS011;7799;53.478;10.170;2023-05-07T12:51:26;2.37;;;2.17;;
15402;SDS011;7799;53.478;10.170;2023-05-07T12:53:55;2.50;;;2.30;;
15402;SDS011;7799;53.478;10.170;2023-05-07T12:56:22;2.93;;;2.73;;
15402;SDS011;7799;53.478;10.170;2023-05-07T12:58:49;2.47;;;2.13;;
15402;SDS011;7799;53.478;10.170;2023-05-07T13:01:16;2.43;;;2.30;;
15402;SDS011;7799;53.478;10.170;2023-05-07T13:03:47;2.60;;;2.40;;
15402;SDS011;7799;53.478;10.170;2023-05-07T13:06:15;2.70;;;2.50;;
15402;SDS011;7799;53.478;10.170;2023-05-07T13:08:43;2.23;;;2.13;;
15402;SDS011;7799;53.478;10.170;2023-05-07T13:11:10;2.53;;;2.33;;
15402;SDS011;7799;53.478;10.170;2023-05-07T13:13:38;3.20;;;2.30;;
15402;SDS011;7799;53.478;10.170;2023-05-07T13:16:06;2.00;;;1.90;;
15402;SDS011;7799;53.478;10.170;2023-05-07T13:18:34;2.00;;;1.90;;
15402;SDS011;7799;53.478;10.170;2023-05-07T13:21:01;2.00;;;1.90;;
15402;SDS011;7799;53.478;10.170;2023-05-07T13:23:28;1.90;;;1.80;;
15402;SDS011;7799;53.478;10.170;2023-05-07T13:25:56;2.27;;;2.17;;
15402;SDS011;7799;53.478;10.170;2023-05-07T13:28:23;1.90;;;1.80;;
15402;SDS011;7799;53.478;10.170;2023-05-07T13:30:49;2.20;;;1.90;;
15402;SDS011;7799;53.478;10.170;2023-05-07T13:33:16;2.37;;;2.13;;
15402;SDS011;7799;53.478;10.170;2023-05-07T13:35:43;2.10;;;1.90;;
15402;SDS011;7799;53.478;10.170;2023-05-07T13:38:10;1.90;;;1.80;;
15402;SDS011;7799;53.478;10.170;2023-05-07T13:40:37;2.00;;;1.90;;
15402;SDS011;7799;53.478;10.170;2023-05-07T13:43:05;1.93;;;1.83;;
15402;SDS011;7799;53.478;10.170;2023-05-07T13:45:33;1.77;;;1.67;;
15402;SDS011;7799;53.478;10.170;2023-05-07T13:47:59;1.70;;;1.60;;
15402;SDS011;7799;53.478;10.170;2023-05-07T13:50:26;1.70;;;1.60;;
15402;SDS011;7799;53.478;10.170;2023-05-07T13:52:54;1.70;;;1.60;;
15402;SDS011;7799;53.478;10.170;2023-05-07T13:55:22;1.97;;;1.80;;
15402;SDS011;7799;53.478;10.170;2023-05-07T13:57:54;1.93;;;1.57;;
15402;SDS011;7799;53.478;10.170;2023-05-07T14:00:23;2.30;;;2.10;;
15402;SDS011;7799;53.478;10.170;2023-05-07T14:02:50;2.10;;;1.90;;
15402;SDS011;7799;53.478;10.170;2023-05-07T14:05:17;1.97;;;1.87;;
15402;SDS011;7799;53.478;10.170;2023-05-07T14:07:44;2.00;;;1.90;;
15402;SDS011;7799;53.478;10.170;2023-05-07T14:10:12;1.77;;;1.67;;
15402;SDS011;7799;53.478;10.170;2023-05-07T14:12:39;1.80;;;1.70;;
15402;SDS011;7799;53.478;10.170;2023-05-07T14:15:06;1.50;;;1.40;;
15402;SDS011;7799;53.478;10.170;2023-05-07T14:17:35;1.50;;;1.40;;
15402;SDS011;7799;53.478;10.170;2023-05-07T14:20:01;1.80;;;1.70;;
15402;SDS011;7799;53.478;10.170;2023-05-07T14:22:28;1.70;;;1.60;;
15402;SDS011;7799;53.478;10.170;2023-05-07T14:24:55;2.53;;;1.90;;
15402;SDS011;7799;53.478;10.170;2023-05-07T14:27:22;1.80;;;1.70;;
15402;SDS011;7799;53.478;10.170;2023-05-07T14:29:48;1.70;;;1.60;;
15402;SDS011;7799;53.478;10.170;2023-05-07T14:32:16;1.80;;;1.70;;
15402;SDS011;7799;53.478;10.170;2023-05-07T14:34:45;1.73;;;1.63;;
15402;SDS011;7799;53.478;10.170;2023-05-07T14:37:12;1.80;;;1.70;;
15402;SDS011;7799;53.478;10.170;2023-05-07T14:39:38;2.13;;;1.93;;
15402;SDS011;7799;53.478;10.170;2023-05-07T14:42:05;2.20;;;2.00;;
15402;SDS011;7799;53.478;10.170;2023-05-07T14:44:33;1.73;;;1.63;;
15402;SDS011;7799;53.478;10.170;2023-05-07T14:46:59;1.80;;;1.70;;
15402;SDS011;7799;53.478;10.170;2023-05-07T14:49:26;1.70;;;1.60;;
15402;SDS011;7799;53.478;10.170;2023-05-07T14:51:56;1.90;;;1.80;;
15402;SDS011;7799;53.478;10.170;2023-05-07T14:54:23;1.73;;;1.63;;
15402;SDS011;7799;53.478;10.170;2023-05-07T14:56:50;1.67;;;1.53;;
15402;SDS011;7799;53.478;10.170;2023-05-07T14:59:17;1.40;;;1.30;;
15402;SDS011;7799;53.478;10.170;2023-05-07T15:01:46;1.50;;;1.40;;
15402;SDS011;7799;53.478;10.170;2023-05-07T15:04:12;1.60;;;1.50;;